sensor_id;sensor_type;location;lat;lon;timestamp;P1;durP1;ratioP1;P2;durP2;ratioP2
46110;SDS011;31849;55.992;37.252;2023-05-02T00:00:26;2.80;;;1.40;;
46110;SDS011;31849;55.992;37.252;2023-05-02T00:05:30;3.35;;;1.60;;
46110;SDS011;31849;55.992;37.252;2023-05-02T00:10:33;3.22;;;1.60;;
46110;SDS011;31849;55.992;37.252;2023-05-02T00:15:38;3.30;;;1.60;;
46110;SDS011;31849;55.992;37.252;2023-05-02T00:25:45;4.63;;;1.50;;
46110;SDS011;31849;55.992;37.252;2023-05-02T00:30:50;2.88;;;1.60;;
46110;SDS011;31849;55.992;37.252;2023-05-02T00:35:53;6.45;;;1.65;;
46110;SDS011;31849;55.992;37.252;2023-05-02T00:40:57;3.22;;;1.60;;
46110;SDS011;31849;55.992;37.252;2023-05-02T00:46:02;2.63;;;1.45;;
46110;SDS011;31849;55.992;37.252;2023-05-02T00:51:05;2.95;;;1.30;;
46110;SDS011;31849;55.992;37.252;2023-05-02T00:56:12;3.53;;;1.52;;
46110;SDS011;31849;55.992;37.252;2023-05-02T01:01:23;2.70;;;1.60;;
46110;SDS011;31849;55.992;37.252;2023-05-02T01:06:38;2.70;;;1.65;;
46110;SDS011;31849;55.992;37.252;2023-05-02T01:12:01;5.60;;;1.67;;
46110;SDS011;31849;55.992;37.252;2023-05-02T01:17:10;4.60;;;2.28;;
46110;SDS011;31849;55.992;37.252;2023-05-02T01:22:16;3.72;;;1.77;;
46110;SDS011;31849;55.992;37.252;2023-05-02T01:27:23;3.58;;;1.90;;
46110;SDS011;31849;55.992;37.252;2023-05-02T01:32:38;4.07;;;1.85;;
46110;SDS011;31849;55.992;37.252;2023-05-02T01:37:43;5.20;;;2.00;;
46110;SDS011;31849;55.992;37.252;2023-05-02T01:42:49;7.03;;;2.03;;
46110;SDS011;31849;55.992;37.252;2023-05-02T01:47:55;5.70;;;2.42;;
46110;SDS011;31849;55.992;37.252;2023-05-02T01:53:00;6.95;;;2.35;;
46110;SDS011;31849;55.992;37.252;2023-05-02T01:58:05;8.70;;;2.22;;
46110;SDS011;31849;55.992;37.252;2023-05-02T02:03:11;6.25;;;2.30;;
46110;SDS011;31849;55.992;37.252;2023-05-02T02:08:16;5.97;;;2.13;;
46110;SDS011;31849;55.992;37.252;2023-05-02T02:13:22;3.45;;;2.20;;
46110;SDS011;31849;55.992;37.252;2023-05-02T02:18:31;3.78;;;1.80;;
46110;SDS011;31849;55.992;37.252;2023-05-02T02:23:39;7.40;;;2.65;;
46110;SDS011;31849;55.992;37.252;2023-05-02T02:28:45;6.38;;;2.45;;
46110;SDS011;31849;55.992;37.252;2023-05-02T02:33:51;3.45;;;1.95;;
46110;SDS011;31849;55.992;37.252;2023-05-02T02:38:57;4.35;;;2.35;;
46110;SDS011;31849;55.992;37.252;2023-05-02T02:44:13;3.30;;;1.90;;
46110;SDS011;31849;55.992;37.252;2023-05-02T02:49:29;6.72;;;2.22;;
46110;SDS011;31849;55.992;37.252;2023-05-02T02:54:38;8.73;;;2.20;;
46110;SDS011;31849;55.992;37.252;2023-05-02T02:59:50;3.35;;;2.10;;
46110;SDS011;31849;55.992;37.252;2023-05-02T03:04:57;7.13;;;2.30;;
46110;SDS011;31849;55.992;37.252;2023-05-02T03:10:04;7.47;;;2.60;;
46110;SDS011;31849;55.992;37.252;2023-05-02T03:15:13;6.82;;;2.67;;
46110;SDS011;31849;55.992;37.252;2023-05-02T03:20:26;8.80;;;2.53;;
46110;SDS011;31849;55.992;37.252;2023-05-02T03:25:30;7.20;;;2.08;;
46110;SDS011;31849;55.992;37.252;2023-05-02T03:30:34;6.03;;;2.55;;
46110;SDS011;31849;55.992;37.252;2023-05-02T03:35:42;5.95;;;2.50;;
46110;SDS011;31849;55.992;37.252;2023-05-02T03:45:49;3.65;;;2.03;;
46110;SDS011;31849;55.992;37.252;2023-05-02T03:50:54;4.65;;;1.88;;
46110;SDS011;31849;55.992;37.252;2023-05-02T04:01:00;3.10;;;1.95;;
46110;SDS011;31849;55.992;37.252;2023-05-02T04:06:05;5.30;;;1.83;;
46110;SDS011;31849;55.992;37.252;2023-05-02T04:11:09;3.08;;;1.80;;
46110;SDS011;31849;55.992;37.252;2023-05-02T04:16:13;5.18;;;2.30;;
46110;SDS011;31849;55.992;37.252;2023-05-02T04:21:18;3.20;;;1.70;;
46110;SDS011;31849;55.992;37.252;2023-05-02T04:26:21;5.90;;;2.35;;
46110;SDS011;31849;55.992;37.252;2023-05-02T04:31:25;3.17;;;1.50;;
46110;SDS011;31849;55.992;37.252;2023-05-02T04:36:30;3.70;;;1.73;;
46110;SDS011;31849;55.992;37.252;2023-05-02T04:41:34;3.35;;;1.77;;
46110;SDS011;31849;55.992;37.252;2023-05-02T04:46:38;4.07;;;1.63;;
46110;SDS011;31849;55.992;37.252;2023-05-02T04:51:43;4.45;;;1.70;;
46110;SDS011;31849;55.992;37.252;2023-05-02T04:56:47;4.63;;;2.35;;
46110;SDS011;31849;55.992;37.252;2023-05-02T05:01:50;3.90;;;1.95;;
46110;SDS011;31849;55.992;37.252;2023-05-02T05:06:55;4.55;;;1.77;;
46110;SDS011;31849;55.992;37.252;2023-05-02T05:11:59;3.75;;;1.75;;
46110;SDS011;31849;55.992;37.252;2023-05-02T05:17:02;3.55;;;1.67;;
46110;SDS011;31849;55.992;37.252;2023-05-02T05:22:07;4.40;;;1.65;;
46110;SDS011;31849;55.992;37.252;2023-05-02T05:27:11;3.17;;;1.50;;
46110;SDS011;31849;55.992;37.252;2023-05-02T05:32:14;2.33;;;1.40;;
46110;SDS011;31849;55.992;37.252;2023-05-02T05:37:19;2.42;;;1.50;;
46110;SDS011;31849;55.992;37.252;2023-05-02T05:42:23;3.28;;;1.50;;
46110;SDS011;31849;55.992;37.252;2023-05-02T05:47:27;4.15;;;1.33;;
46110;SDS011;31849;55.992;37.252;2023-05-02T05:52:32;3.55;;;1.55;;
46110;SDS011;31849;55.992;37.252;2023-05-02T05:57:36;4.28;;;1.63;;
46110;SDS011;31849;55.992;37.252;2023-05-02T06:02:40;4.85;;;1.38;;
46110;SDS011;31849;55.992;37.252;2023-05-02T06:07:45;6.45;;;1.98;;
46110;SDS011;31849;55.992;37.252;2023-05-02T06:12:48;4.13;;;1.77;;
46110;SDS011;31849;55.992;37.252;2023-05-02T06:17:52;7.03;;;2.13;;
46110;SDS011;31849;55.992;37.252;2023-05-02T06:22:57;3.60;;;1.38;;
46110;SDS011;31849;55.992;37.252;2023-05-02T06:28:00;3.53;;;1.30;;
46110;SDS011;31849;55.992;37.252;2023-05-02T06:33:04;2.45;;;1.35;;
46110;SDS011;31849;55.992;37.252;2023-05-02T06:38:11;2.75;;;1.40;;
46110;SDS011;31849;55.992;37.252;2023-05-02T06:43:15;3.00;;;1.40;;
46110;SDS011;31849;55.992;37.252;2023-05-02T06:48:19;3.45;;;1.45;;
46110;SDS011;31849;55.992;37.252;2023-05-02T06:53:24;2.75;;;1.48;;
46110;SDS011;31849;55.992;37.252;2023-05-02T06:58:28;2.17;;;1.30;;
46110;SDS011;31849;55.992;37.252;2023-05-02T07:03:32;3.05;;;1.40;;
46110;SDS011;31849;55.992;37.252;2023-05-02T07:08:37;1.90;;;1.27;;
46110;SDS011;31849;55.992;37.252;2023-05-02T07:13:40;2.22;;;1.38;;
46110;SDS011;31849;55.992;37.252;2023-05-02T07:18:45;2.63;;;1.45;;
46110;SDS011;31849;55.992;37.252;2023-05-02T07:23:50;2.90;;;1.20;;
46110;SDS011;31849;55.992;37.252;2023-05-02T07:28:53;3.33;;;1.63;;
46110;SDS011;31849;55.992;37.252;2023-05-02T07:33:57;2.60;;;1.50;;
46110;SDS011;31849;55.992;37.252;2023-05-02T07:39:02;2.45;;;1.25;;
46110;SDS011;31849;55.992;37.252;2023-05-02T07:44:05;2.28;;;1.30;;
46110;SDS011;31849;55.992;37.252;2023-05-02T07:49:09;3.17;;;1.60;;
46110;SDS011;31849;55.992;37.252;2023-05-02T07:54:17;2.05;;;1.30;;
46110;SDS011;31849;55.992;37.252;2023-05-02T07:59:22;3.40;;;1.60;;
46110;SDS011;31849;55.992;37.252;2023-05-02T08:04:25;3.65;;;1.35;;
46110;SDS011;31849;55.992;37.252;2023-05-02T08:09:31;2.60;;;1.30;;
46110;SDS011;31849;55.992;37.252;2023-05-02T08:14:34;5.13;;;1.30;;
46110;SDS011;31849;55.992;37.252;2023-05-02T08:19:38;2.75;;;1.30;;
46110;SDS011;31849;55.992;37.252;2023-05-02T08:24:43;1.50;;;1.08;;
46110;SDS011;31849;55.992;37.252;2023-05-02T08:29:46;2.78;;;1.30;;
46110;SDS011;31849;55.992;37.252;2023-05-02T08:34:50;1.77;;;1.10;;
46110;SDS011;31849;55.992;37.252;2023-05-02T08:39:58;2.45;;;1.05;;
46110;SDS011;31849;55.992;37.252;2023-05-02T08:45:05;3.97;;;1.20;;
46110;SDS011;31849;55.992;37.252;2023-05-02T08:50:11;2.60;;;1.10;;
46110;SDS011;31849;55.992;37.252;2023-05-02T08:55:16;1.80;;;0.90;;
46110;SDS011;31849;55.992;37.252;2023-05-02T09:00:20;2.35;;;1.33;;
46110;SDS011;31849;55.992;37.252;2023-05-02T09:05:24;1.80;;;1.23;;
46110;SDS011;31849;55.992;37.252;2023-05-02T09:10:29;1.90;;;1.10;;
46110;SDS011;31849;55.992;37.252;2023-05-02T09:15:33;2.47;;;1.58;;
46110;SDS011;31849;55.992;37.252;2023-05-02T09:20:39;2.72;;;1.27;;
46110;SDS011;31849;55.992;37.252;2023-05-02T09:25:44;2.22;;;1.02;;
46110;SDS011;31849;55.992;37.252;2023-05-02T09:30:48;2.92;;;1.10;;
46110;SDS011;31849;55.992;37.252;2023-05-02T09:35:52;2.03;;;1.10;;
46110;SDS011;31849;55.992;37.252;2023-05-02T09:40:58;3.92;;;1.30;;
46110;SDS011;31849;55.992;37.252;2023-05-02T09:46:04;2.30;;;1.00;;
46110;SDS011;31849;55.992;37.252;2023-05-02T09:51:10;2.33;;;1.10;;
46110;SDS011;31849;55.992;37.252;2023-05-02T09:56:21;2.00;;;1.00;;
46110;SDS011;31849;55.992;37.252;2023-05-02T10:01:26;3.08;;;1.05;;
46110;SDS011;31849;55.992;37.252;2023-05-02T10:06:30;1.50;;;0.90;;
46110;SDS011;31849;55.992;37.252;2023-05-02T10:11:36;2.58;;;1.05;;
46110;SDS011;31849;55.992;37.252;2023-05-02T10:16:46;1.95;;;1.15;;
46110;SDS011;31849;55.992;37.252;2023-05-02T10:21:57;3.08;;;1.17;;
46110;SDS011;31849;55.992;37.252;2023-05-02T10:27:04;3.00;;;1.10;;
46110;SDS011;31849;55.992;37.252;2023-05-02T10:32:08;2.40;;;1.00;;
46110;SDS011;31849;55.992;37.252;2023-05-02T10:37:13;2.47;;;1.20;;
46110;SDS011;31849;55.992;37.252;2023-05-02T10:42:20;2.65;;;1.30;;
46110;SDS011;31849;55.992;37.252;2023-05-02T10:47:26;3.10;;;1.10;;
46110;SDS011;31849;55.992;37.252;2023-05-02T10:52:30;1.50;;;1.00;;
46110;SDS011;31849;55.992;37.252;2023-05-02T10:57:37;2.28;;;1.17;;
46110;SDS011;31849;55.992;37.252;2023-05-02T11:03:14;2.00;;;1.20;;
46110;SDS011;31849;55.992;37.252;2023-05-02T11:14:43;2.28;;;1.15;;
46110;SDS011;31849;55.992;37.252;2023-05-02T11:25:35;3.22;;;1.10;;
46110;SDS011;31849;55.992;37.252;2023-05-02T11:30:42;2.45;;;1.17;;
46110;SDS011;31849;55.992;37.252;2023-05-02T11:35:49;3.13;;;1.10;;
46110;SDS011;31849;55.992;37.252;2023-05-02T11:40:53;2.80;;;1.17;;
46110;SDS011;31849;55.992;37.252;2023-05-02T11:46:00;4.28;;;1.17;;
46110;SDS011;31849;55.992;37.252;2023-05-02T11:51:04;3.22;;;1.27;;
46110;SDS011;31849;55.992;37.252;2023-05-02T11:56:08;2.40;;;1.40;;
46110;SDS011;31849;55.992;37.252;2023-05-02T12:01:13;2.10;;;0.97;;
46110;SDS011;31849;55.992;37.252;2023-05-02T12:06:18;2.22;;;1.13;;
46110;SDS011;31849;55.992;37.252;2023-05-02T12:11:22;2.00;;;1.15;;
46110;SDS011;31849;55.992;37.252;2023-05-02T12:16:27;2.73;;;1.07;;
46110;SDS011;31849;55.992;37.252;2023-05-02T12:21:31;1.95;;;1.10;;
46110;SDS011;31849;55.992;37.252;2023-05-02T12:26:35;2.78;;;1.10;;
46110;SDS011;31849;55.992;37.252;2023-05-02T12:31:40;3.13;;;1.07;;
46110;SDS011;31849;55.992;37.252;2023-05-02T12:36:53;3.67;;;1.10;;
46110;SDS011;31849;55.992;37.252;2023-05-02T12:41:56;2.58;;;1.17;;
46110;SDS011;31849;55.992;37.252;2023-05-02T12:47:01;2.58;;;1.02;;
46110;SDS011;31849;55.992;37.252;2023-05-02T12:52:05;2.50;;;1.10;;
46110;SDS011;31849;55.992;37.252;2023-05-02T12:57:09;3.60;;;1.30;;
46110;SDS011;31849;55.992;37.252;2023-05-02T13:02:14;4.28;;;1.50;;
46110;SDS011;31849;55.992;37.252;2023-05-02T13:07:17;4.80;;;1.60;;
46110;SDS011;31849;55.992;37.252;2023-05-02T13:12:21;2.40;;;1.27;;
46110;SDS011;31849;55.992;37.252;2023-05-02T13:17:26;2.38;;;0.93;;
46110;SDS011;31849;55.992;37.252;2023-05-02T13:22:29;2.92;;;1.10;;
46110;SDS011;31849;55.992;37.252;2023-05-02T13:27:33;3.37;;;1.40;;
46110;SDS011;31849;55.992;37.252;2023-05-02T13:32:38;2.33;;;1.50;;
46110;SDS011;31849;55.992;37.252;2023-05-02T13:37:42;2.30;;;1.30;;
46110;SDS011;31849;55.992;37.252;2023-05-02T13:42:46;2.03;;;1.20;;
46110;SDS011;31849;55.992;37.252;2023-05-02T13:47:51;2.47;;;1.37;;
46110;SDS011;31849;55.992;37.252;2023-05-02T13:52:54;2.00;;;1.20;;
46110;SDS011;31849;55.992;37.252;2023-05-02T13:57:58;2.17;;;1.10;;
46110;SDS011;31849;55.992;37.252;2023-05-02T14:03:03;2.20;;;1.38;;
46110;SDS011;31849;55.992;37.252;2023-05-02T14:08:07;4.82;;;1.40;;
46110;SDS011;31849;55.992;37.252;2023-05-02T14:13:11;3.37;;;1.50;;
46110;SDS011;31849;55.992;37.252;2023-05-02T14:18:16;4.63;;;1.53;;
46110;SDS011;31849;55.992;37.252;2023-05-02T14:23:19;2.42;;;1.42;;
46110;SDS011;31849;55.992;37.252;2023-05-02T14:28:23;2.67;;;1.67;;
46110;SDS011;31849;55.992;37.252;2023-05-02T14:38:32;1.90;;;1.25;;
46110;SDS011;31849;55.992;37.252;2023-05-02T14:43:36;2.20;;;1.50;;
46110;SDS011;31849;55.992;37.252;2023-05-02T14:48:41;3.65;;;1.50;;
46110;SDS011;31849;55.992;37.252;2023-05-02T14:53:46;4.68;;;1.80;;
46110;SDS011;31849;55.992;37.252;2023-05-02T14:58:50;2.72;;;1.63;;
46110;SDS011;31849;55.992;37.252;2023-05-02T15:03:55;3.93;;;1.77;;
46110;SDS011;31849;55.992;37.252;2023-05-02T15:09:08;4.05;;;1.88;;
46110;SDS011;31849;55.992;37.252;2023-05-02T15:14:12;3.22;;;1.60;;
46110;SDS011;31849;55.992;37.252;2023-05-02T15:19:17;3.47;;;1.73;;
46110;SDS011;31849;55.992;37.252;2023-05-02T15:24:23;5.82;;;2.60;;
46110;SDS011;31849;55.992;37.252;2023-05-02T15:29:26;3.15;;;1.55;;
46110;SDS011;31849;55.992;37.252;2023-05-02T15:34:31;3.25;;;1.60;;
46110;SDS011;31849;55.992;37.252;2023-05-02T15:39:35;5.40;;;2.13;;
46110;SDS011;31849;55.992;37.252;2023-05-02T15:44:38;5.28;;;2.88;;
46110;SDS011;31849;55.992;37.252;2023-05-02T15:49:43;5.05;;;2.58;;
46110;SDS011;31849;55.992;37.252;2023-05-02T15:54:47;4.68;;;2.28;;
46110;SDS011;31849;55.992;37.252;2023-05-02T15:59:52;7.50;;;3.88;;
46110;SDS011;31849;55.992;37.252;2023-05-02T16:04:57;4.80;;;2.67;;
46110;SDS011;31849;55.992;37.252;2023-05-02T16:10:00;5.68;;;2.80;;
46110;SDS011;31849;55.992;37.252;2023-05-02T16:15:06;6.10;;;2.72;;
46110;SDS011;31849;55.992;37.252;2023-05-02T16:25:15;6.03;;;2.22;;
46110;SDS011;31849;55.992;37.252;2023-05-02T16:30:20;4.20;;;2.67;;
46110;SDS011;31849;55.992;37.252;2023-05-02T16:35:26;8.10;;;2.40;;
46110;SDS011;31849;55.992;37.252;2023-05-02T16:40:29;6.53;;;2.70;;
46110;SDS011;31849;55.992;37.252;2023-05-02T16:45:33;6.70;;;2.92;;
46110;SDS011;31849;55.992;37.252;2023-05-02T16:50:38;5.63;;;2.80;;
46110;SDS011;31849;55.992;37.252;2023-05-02T16:55:41;10.10;;;3.00;;
46110;SDS011;31849;55.992;37.252;2023-05-02T17:00:45;6.63;;;2.97;;
46110;SDS011;31849;55.992;37.252;2023-05-02T17:05:50;9.68;;;3.65;;
46110;SDS011;31849;55.992;37.252;2023-05-02T17:10:53;6.50;;;2.85;;
46110;SDS011;31849;55.992;37.252;2023-05-02T17:15:57;5.77;;;2.23;;
46110;SDS011;31849;55.992;37.252;2023-05-02T17:21:03;4.35;;;2.30;;
46110;SDS011;31849;55.992;37.252;2023-05-02T17:26:07;4.97;;;2.28;;
46110;SDS011;31849;55.992;37.252;2023-05-02T17:31:15;5.47;;;2.90;;
46110;SDS011;31849;55.992;37.252;2023-05-02T17:36:20;7.87;;;2.77;;
46110;SDS011;31849;55.992;37.252;2023-05-02T17:41:23;8.82;;;4.53;;
46110;SDS011;31849;55.992;37.252;2023-05-02T17:46:27;17.37;;;5.67;;
46110;SDS011;31849;55.992;37.252;2023-05-02T17:51:33;16.87;;;7.97;;
46110;SDS011;31849;55.992;37.252;2023-05-02T17:56:36;22.90;;;10.77;;
46110;SDS011;31849;55.992;37.252;2023-05-02T18:01:40;32.83;;;15.00;;
46110;SDS011;31849;55.992;37.252;2023-05-02T18:06:45;31.77;;;17.17;;
46110;SDS011;31849;55.992;37.252;2023-05-02T18:11:49;38.20;;;22.55;;
46110;SDS011;31849;55.992;37.252;2023-05-02T18:16:52;31.07;;;20.77;;
46110;SDS011;31849;55.992;37.252;2023-05-02T18:21:58;28.45;;;18.45;;
46110;SDS011;31849;55.992;37.252;2023-05-02T18:27:02;18.30;;;13.55;;
46110;SDS011;31849;55.992;37.252;2023-05-02T18:32:05;17.50;;;10.27;;
46110;SDS011;31849;55.992;37.252;2023-05-02T18:37:10;15.15;;;9.25;;
46110;SDS011;31849;55.992;37.252;2023-05-02T18:42:14;11.52;;;7.40;;
46110;SDS011;31849;55.992;37.252;2023-05-02T18:47:17;17.65;;;8.73;;
46110;SDS011;31849;55.992;37.252;2023-05-02T18:52:23;15.23;;;7.97;;
46110;SDS011;31849;55.992;37.252;2023-05-02T18:57:27;15.27;;;9.00;;
46110;SDS011;31849;55.992;37.252;2023-05-02T19:02:31;14.90;;;9.05;;
46110;SDS011;31849;55.992;37.252;2023-05-02T19:07:36;11.73;;;7.22;;
46110;SDS011;31849;55.992;37.252;2023-05-02T19:12:39;16.05;;;6.60;;
46110;SDS011;31849;55.992;37.252;2023-05-02T19:22:49;10.95;;;5.18;;
46110;SDS011;31849;55.992;37.252;2023-05-02T19:28:08;10.60;;;4.78;;
46110;SDS011;31849;55.992;37.252;2023-05-02T19:38:17;7.82;;;4.30;;
46110;SDS011;31849;55.992;37.252;2023-05-02T19:43:20;8.05;;;3.47;;
46110;SDS011;31849;55.992;37.252;2023-05-02T19:48:24;4.25;;;2.92;;
46110;SDS011;31849;55.992;37.252;2023-05-02T19:53:29;9.18;;;3.92;;
46110;SDS011;31849;55.992;37.252;2023-05-02T19:58:33;13.60;;;3.67;;
46110;SDS011;31849;55.992;37.252;2023-05-02T20:03:37;8.88;;;3.83;;
46110;SDS011;31849;55.992;37.252;2023-05-02T20:08:42;6.57;;;3.00;;
46110;SDS011;31849;55.992;37.252;2023-05-02T20:18:48;5.32;;;2.70;;
46110;SDS011;31849;55.992;37.252;2023-05-02T20:23:54;11.32;;;4.20;;
46110;SDS011;31849;55.992;37.252;2023-05-02T20:34:01;9.80;;;4.15;;
46110;SDS011;31849;55.992;37.252;2023-05-02T20:39:06;9.15;;;4.38;;
46110;SDS011;31849;55.992;37.252;2023-05-02T20:44:12;6.97;;;3.60;;
46110;SDS011;31849;55.992;37.252;2023-05-02T20:49:17;6.68;;;2.90;;
46110;SDS011;31849;55.992;37.252;2023-05-02T20:54:22;7.93;;;2.88;;
46110;SDS011;31849;55.992;37.252;2023-05-02T20:59:26;7.95;;;2.90;;
46110;SDS011;31849;55.992;37.252;2023-05-02T21:04:30;6.82;;;3.67;;
46110;SDS011;31849;55.992;37.252;2023-05-02T21:09:35;6.03;;;3.47;;
46110;SDS011;31849;55.992;37.252;2023-05-02T21:19:41;10.80;;;5.05;;
46110;SDS011;31849;55.992;37.252;2023-05-02T21:24:46;9.18;;;4.32;;
46110;SDS011;31849;55.992;37.252;2023-05-02T21:29:50;7.38;;;3.80;;
46110;SDS011;31849;55.992;37.252;2023-05-02T21:34:54;7.18;;;3.72;;
46110;SDS011;31849;55.992;37.252;2023-05-02T21:39:59;6.15;;;3.33;;
46110;SDS011;31849;55.992;37.252;2023-05-02T21:45:04;7.75;;;3.80;;
46110;SDS011;31849;55.992;37.252;2023-05-02T21:50:08;8.98;;;4.18;;
46110;SDS011;31849;55.992;37.252;2023-05-02T21:55:14;6.85;;;3.42;;
46110;SDS011;31849;55.992;37.252;2023-05-02T22:00:18;5.15;;;3.33;;
46110;SDS011;31849;55.992;37.252;2023-05-02T22:05:22;4.88;;;2.70;;
46110;SDS011;31849;55.992;37.252;2023-05-02T22:10:27;6.68;;;3.20;;
46110;SDS011;31849;55.992;37.252;2023-05-02T22:15:31;6.65;;;3.25;;
46110;SDS011;31849;55.992;37.252;2023-05-02T22:20:35;6.40;;;3.20;;
46110;SDS011;31849;55.992;37.252;2023-05-02T22:25:40;6.28;;;2.70;;
46110;SDS011;31849;55.992;37.252;2023-05-02T22:30:45;4.78;;;2.58;;
46110;SDS011;31849;55.992;37.252;2023-05-02T22:35:49;4.93;;;2.78;;
46110;SDS011;31849;55.992;37.252;2023-05-02T22:40:53;4.75;;;2.63;;
46110;SDS011;31849;55.992;37.252;2023-05-02T22:51:00;5.75;;;2.33;;
46110;SDS011;31849;55.992;37.252;2023-05-02T22:56:06;8.00;;;2.75;;
46110;SDS011;31849;55.992;37.252;2023-05-02T23:01:09;7.43;;;3.17;;
46110;SDS011;31849;55.992;37.252;2023-05-02T23:06:13;4.85;;;2.60;;
46110;SDS011;31849;55.992;37.252;2023-05-02T23:11:18;6.43;;;2.53;;
46110;SDS011;31849;55.992;37.252;2023-05-02T23:16:21;5.95;;;2.67;;
46110;SDS011;31849;55.992;37.252;2023-05-02T23:21:25;5.80;;;2.40;;
46110;SDS011;31849;55.992;37.252;2023-05-02T23:26:30;6.93;;;2.63;;
46110;SDS011;31849;55.992;37.252;2023-05-02T23:36:37;6.88;;;2.38;;
46110;SDS011;31849;55.992;37.252;2023-05-02T23:41:42;5.72;;;2.63;;
46110;SDS011;31849;55.992;37.252;2023-05-02T23:51:49;6.07;;;2.47;;
46110;SDS011;31849;55.992;37.252;2023-05-02T23:56:54;7.07;;;2.72;;
